Time,TemperatureF,DewpointF,PressureIn,WindDirection,WindDirectionDegrees,WindSpeedMPH,WindSpeedGustMPH,Humidity,HourlyPrecipIn,Conditions,Clouds,dailyrainin,SolarRadiationWatts/m^2,SoftwareType,DateUTC
2013-05-25 00:22:00,66.0,65.0,-100.00,SSE,149,15.0,20.0,97,0.00,,,-99.99,0.000000,,2013-05-25 05:22:00,
2013-05-25 00:32:00,66.0,65.0,-100.00,SSE,149,15.0,20.0,97,0.00,,,-99.99,0.000000,,2013-05-25 05:32:00,
2013-05-25 00:43:00,66.0,65.0,-100.00,SSE,149,15.0,20.0,97,0.00,,,-99.99,0.000000,,2013-05-25 05:43:00,
2013-05-25 00:52:00,66.0,65.0,-100.00,SSE,149,15.0,20.0,97,0.00,,,-99.99,0.000000,,2013-05-25 05:52:00,
2013-05-25 01:21:00,68.0,67.0,-100.00,SSE,159,18.0,26.0,97,0.00,,,0.01,0.000000,,2013-05-25 06:21:00,
2013-05-25 01:32:00,68.0,67.0,-100.00,SSE,159,18.0,26.0,97,0.00,,,0.01,0.000000,,2013-05-25 06:32:00,
2013-05-25 01:42:00,68.0,67.0,-100.00,SSE,159,18.0,26.0,97,0.00,,,0.01,0.000000,,2013-05-25 06:42:00,
2013-05-25 01:52:00,68.0,67.0,-100.00,SSE,159,18.0,26.0,97,0.00,,,0.01,0.000000,,2013-05-25 06:52:00,
2013-05-25 02:21:00,69.0,69.0,-100.00,SSW,203,13.0,26.0,100,0.00,,,0.01,0.000000,,2013-05-25 07:21:00,
2013-05-25 02:32:00,69.0,69.0,-100.00,SSW,203,13.0,26.0,100,0.00,,,0.01,0.000000,,2013-05-25 07:32:00,
2013-05-25 02:42:00,69.0,69.0,-100.00,SSW,203,13.0,26.0,100,0.00,,,0.01,0.000000,,2013-05-25 07:42:00,
2013-05-25 02:52:00,69.0,69.0,-100.00,SSW,203,13.0,26.0,100,0.00,,,0.01,0.000000,,2013-05-25 07:52:00,
2013-05-25 03:22:00,57.0,57.0,-100.00,WNW,283,6.0,35.0,100,0.84,,,0.85,0.000000,,2013-05-25 08:22:00,
2013-05-25 03:32:00,57.0,57.0,-100.00,WNW,283,6.0,35.0,100,0.84,,,0.85,0.000000,,2013-05-25 08:32:00,
2013-05-25 03:42:00,57.0,57.0,-100.00,WNW,283,6.0,35.0,100,0.84,,,0.85,0.000000,,2013-05-25 08:42:00,
2013-05-25 03:51:00,57.0,57.0,-100.00,WNW,283,6.0,35.0,100,0.84,,,0.85,0.000000,,2013-05-25 08:51:00,
2013-05-25 04:21:00,59.0,59.0,-100.00,NW,308,7.0,11.0,100,0.44,,,1.29,0.000000,,2013-05-25 09:21:00,
2013-05-25 04:33:00,59.0,59.0,-100.00,NW,308,7.0,11.0,100,0.44,,,1.29,0.000000,,2013-05-25 09:33:00,
2013-05-25 04:43:00,59.0,59.0,-100.00,NW,308,7.0,11.0,100,0.44,,,1.29,0.000000,,2013-05-25 09:43:00,
2013-05-25 04:52:00,59.0,59.0,-100.00,NW,308,7.0,11.0,100,0.44,,,1.29,0.000000,,2013-05-25 09:52:00,
2013-05-25 05:22:00,59.0,59.0,-100.00,SSE,158,10.0,14.0,100,0.27,,,1.56,0.000000,,2013-05-25 10:22:00,
2013-05-25 05:33:00,59.0,59.0,-100.00,SSE,158,10.0,14.0,100,0.27,,,1.56,0.000000,,2013-05-25 10:33:00,
2013-05-25 05:42:00,59.0,59.0,-100.00,SSE,158,10.0,14.0,100,0.27,,,1.56,0.000000,,2013-05-25 10:42:00,
2013-05-25 05:52:00,59.0,59.0,-100.00,SSE,158,10.0,14.0,100,0.27,,,1.56,0.000000,,2013-05-25 10:52:00,
2013-05-25 06:22:00,59.0,59.0,-100.00,ESE,105,4.0,11.0,100,0.01,,,1.57,0.000000,,2013-05-25 11:22:00,
2013-05-25 06:32:00,59.0,59.0,-100.00,ESE,105,4.0,11.0,100,0.01,,,1.57,0.000000,,2013-05-25 11:32:00,
2013-05-25 06:42:00,59.0,59.0,-100.00,ESE,105,4.0,11.0,100,0.01,,,1.57,0.000000,,2013-05-25 11:42:00,
2013-05-25 06:52:00,59.0,59.0,-100.00,ESE,105,4.0,11.0,100,0.01,,,1.57,0.000000,,2013-05-25 11:52:00,
2013-05-25 07:22:00,59.0,59.0,-100.00,SE,130,0.0,8.0,100,0.00,,,1.57,0.000000,,2013-05-25 12:22:00,
2013-05-25 07:32:00,59.0,59.0,-100.00,SE,130,0.0,8.0,100,0.00,,,1.57,0.000000,,2013-05-25 12:32:00,
2013-05-25 07:42:00,59.0,59.0,-100.00,SE,130,0.0,8.0,100,0.00,,,1.57,0.000000,,2013-05-25 12:42:00,
2013-05-25 07:52:00,59.0,59.0,-100.00,SE,130,0.0,8.0,100,0.00,,,1.57,0.000000,,2013-05-25 12:52:00,
2013-05-25 08:22:00,60.0,60.0,-100.00,NW,324,3.0,13.0,100,0.24,,,1.81,0.000000,,2013-05-25 13:22:00,
2013-05-25 08:32:00,60.0,60.0,-100.00,NW,324,3.0,13.0,100,0.24,,,1.81,0.000000,,2013-05-25 13:32:00,
2013-05-25 08:42:00,60.0,60.0,-100.00,NW,324,3.0,13.0,100,0.24,,,1.81,0.000000,,2013-05-25 13:42:00,
2013-05-25 08:52:00,60.0,60.0,-100.00,NW,324,3.0,13.0,100,0.24,,,1.81,0.000000,,2013-05-25 13:52:00,
2013-05-25 09:22:00,62.0,62.0,-100.00,ESE,113,9.0,15.0,100,0.40,,,2.21,0.000000,,2013-05-25 14:22:00,
2013-05-25 09:32:00,62.0,62.0,-100.00,ESE,113,9.0,15.0,100,0.40,,,2.21,0.000000,,2013-05-25 14:32:00,
2013-05-25 09:42:00,62.0,62.0,-100.00,ESE,113,9.0,15.0,100,0.40,,,2.21,0.000000,,2013-05-25 14:42:00,
2013-05-25 09:52:00,62.0,62.0,-100.00,ESE,113,9.0,15.0,100,0.40,,,2.21,0.000000,,2013-05-25 14:52:00,
2013-05-25 10:22:00,65.0,65.0,-100.00,SE,139,12.0,17.0,100,0.01,,,2.22,0.000000,,2013-05-25 15:22:00,
2013-05-25 10:33:00,65.0,65.0,-100.00,SE,139,12.0,17.0,100,0.01,,,2.22,0.000000,,2013-05-25 15:33:00,
2013-05-25 10:43:00,65.0,65.0,-100.00,SE,139,12.0,17.0,100,0.01,,,2.22,0.000000,,2013-05-25 15:43:00,
2013-05-25 10:53:00,65.0,65.0,-100.00,SE,139,12.0,17.0,100,0.01,,,2.22,0.000000,,2013-05-25 15:53:00,
2013-05-25 11:23:00,66.0,66.0,-100.00,SE,140,15.0,20.0,99,0.00,,,2.22,0.000000,,2013-05-25 16:23:00,
2013-05-25 11:32:00,66.0,66.0,-100.00,SE,140,15.0,20.0,99,0.00,,,2.22,0.000000,,2013-05-25 16:32:00,
2013-05-25 11:42:00,66.0,66.0,-100.00,SE,140,15.0,20.0,99,0.00,,,2.22,0.000000,,2013-05-25 16:42:00,
2013-05-25 11:52:00,66.0,66.0,-100.00,SE,140,15.0,20.0,99,0.00,,,2.22,0.000000,,2013-05-25 16:52:00,
2013-05-25 12:22:00,73.0,73.0,-100.00,SE,142,14.0,20.0,100,0.00,,,2.22,0.000000,,2013-05-25 17:22:00,
2013-05-25 12:32:00,73.0,73.0,-100.00,SE,142,14.0,20.0,100,0.00,,,2.22,0.000000,,2013-05-25 17:32:00,
2013-05-25 12:42:00,73.0,73.0,-100.00,SE,142,14.0,20.0,100,0.00,,,2.22,0.000000,,2013-05-25 17:42:00,
2013-05-25 12:52:00,73.0,73.0,-100.00,SE,142,14.0,20.0,100,0.00,,,2.22,0.000000,,2013-05-25 17:52:00,
2013-05-25 13:21:00,78.0,71.0,-100.00,South,173,18.0,24.0,78,0.00,,,2.22,0.000000,,2013-05-25 18:21:00,
2013-05-25 13:32:00,78.0,71.0,-100.00,South,173,18.0,24.0,78,0.00,,,2.22,0.000000,,2013-05-25 18:32:00,
2013-05-25 13:42:00,78.0,71.0,-100.00,South,173,18.0,24.0,78,0.00,,,2.22,0.000000,,2013-05-25 18:42:00,
2013-05-25 13:52:00,78.0,71.0,-100.00,South,173,18.0,24.0,78,0.00,,,2.22,0.000000,,2013-05-25 18:52:00,
2013-05-25 14:22:00,79.0,68.0,-100.00,South,173,16.0,26.0,69,0.00,,,2.22,0.000000,,2013-05-25 19:22:00,
2013-05-25 14:32:00,79.0,68.0,-100.00,South,173,16.0,26.0,69,0.00,,,2.22,0.000000,,2013-05-25 19:32:00,
2013-05-25 14:42:00,79.0,68.0,-100.00,South,173,16.0,26.0,69,0.00,,,2.22,0.000000,,2013-05-25 19:42:00,
2013-05-25 14:52:00,79.0,68.0,-100.00,South,173,16.0,26.0,69,0.00,,,2.22,0.000000,,2013-05-25 19:52:00,
2013-05-25 15:22:00,80.0,69.0,-100.00,South,170,17.0,23.0,69,0.00,,,2.22,0.000000,,2013-05-25 20:22:00,
2013-05-25 15:32:00,80.0,69.0,-100.00,South,170,17.0,23.0,69,0.00,,,2.22,0.000000,,2013-05-25 20:32:00,
2013-05-25 15:42:00,80.0,69.0,-100.00,South,170,17.0,23.0,69,0.00,,,2.22,0.000000,,2013-05-25 20:42:00,
2013-05-25 15:52:00,80.0,69.0,-100.00,South,170,17.0,23.0,69,0.00,,,2.22,0.000000,,2013-05-25 20:52:00,
2013-05-25 16:21:00,82.0,70.0,-100.00,SSE,168,18.0,24.0,67,0.00,,,2.22,0.000000,,2013-05-25 21:21:00,
2013-05-25 16:33:00,82.0,70.0,-100.00,SSE,168,18.0,24.0,67,0.00,,,2.22,0.000000,,2013-05-25 21:33:00,
2013-05-25 16:43:00,82.0,70.0,-100.00,SSE,168,18.0,24.0,67,0.00,,,2.22,0.000000,,2013-05-25 21:43:00,
2013-05-25 16:53:00,82.0,70.0,-100.00,SSE,168,18.0,24.0,67,0.00,,,2.22,0.000000,,2013-05-25 21:53:00,
2013-05-25 17:23:00,81.0,69.0,-100.00,SSE,155,19.0,24.0,66,0.00,,,2.22,0.000000,,2013-05-25 22:23:00,
2013-05-25 17:32:00,81.0,69.0,-100.00,SSE,155,19.0,24.0,66,0.00,,,2.22,0.000000,,2013-05-25 22:32:00,
2013-05-25 17:42:00,81.0,69.0,-100.00,SSE,155,19.0,24.0,66,0.00,,,2.22,0.000000,,2013-05-25 22:42:00,
2013-05-25 17:52:00,81.0,69.0,-100.00,SSE,155,19.0,24.0,66,0.00,,,2.22,0.000000,,2013-05-25 22:52:00,
2013-05-25 18:22:00,81.0,70.0,-100.00,SSE,155,17.0,23.0,69,0.00,,,2.22,0.000000,,2013-05-25 23:22:00,
2013-05-25 18:32:00,81.0,70.0,-100.00,SSE,155,17.0,23.0,69,0.00,,,2.22,0.000000,,2013-05-25 23:32:00,
2013-05-25 18:42:00,81.0,70.0,-100.00,SSE,155,17.0,23.0,69,0.00,,,2.22,0.000000,,2013-05-25 23:42:00,
2013-05-25 18:52:00,81.0,70.0,-100.00,SSE,155,17.0,23.0,69,0.00,,,2.22,0.000000,,2013-05-25 23:52:00,
2013-05-25 19:22:00,79.0,69.0,-100.00,SSE,151,14.0,21.0,72,0.00,,,2.21,0.000000,,2013-05-26 00:22:00,
2013-05-25 19:31:00,79.0,69.0,-100.00,SSE,151,14.0,21.0,72,0.00,,,2.21,0.000000,,2013-05-26 00:31:00,
2013-05-25 19:42:00,79.0,69.0,-100.00,SSE,151,14.0,21.0,72,0.00,,,2.21,0.000000,,2013-05-26 00:42:00,
2013-05-25 19:52:00,79.0,69.0,-100.00,SSE,151,14.0,21.0,72,0.00,,,2.21,0.000000,,2013-05-26 00:52:00,
2013-05-25 20:21:00,75.0,67.0,-100.00,SSE,147,12.0,20.0,76,0.00,,,2.21,0.000000,,2013-05-26 01:21:00,
2013-05-25 20:32:00,75.0,67.0,-100.00,SSE,147,12.0,20.0,76,0.00,,,2.21,0.000000,,2013-05-26 01:32:00,
2013-05-25 20:42:00,75.0,67.0,-100.00,SSE,147,12.0,20.0,76,0.00,,,2.21,0.000000,,2013-05-26 01:42:00,
2013-05-25 20:52:00,75.0,67.0,-100.00,SSE,147,12.0,20.0,76,0.00,,,2.21,0.000000,,2013-05-26 01:52:00,
2013-05-25 21:21:00,72.0,67.0,-100.00,SE,140,10.0,16.0,85,0.00,,,2.21,0.000000,,2013-05-26 02:21:00,
2013-05-25 21:32:00,72.0,67.0,-100.00,SE,140,10.0,16.0,85,0.00,,,2.21,0.000000,,2013-05-26 02:32:00,
2013-05-25 21:42:00,72.0,67.0,-100.00,SE,140,10.0,16.0,85,0.00,,,2.21,0.000000,,2013-05-26 02:42:00,
2013-05-25 21:52:00,72.0,67.0,-100.00,SE,140,10.0,16.0,85,0.00,,,2.21,0.000000,,2013-05-26 02:52:00,
2013-05-25 22:21:00,71.0,69.0,-100.00,SE,145,10.0,14.0,94,0.00,,,2.21,0.000000,,2013-05-26 03:21:00,
2013-05-25 22:33:00,71.0,69.0,-100.00,SE,145,10.0,14.0,94,0.00,,,2.21,0.000000,,2013-05-26 03:33:00,
2013-05-25 22:42:00,71.0,69.0,-100.00,SE,145,10.0,14.0,94,0.00,,,2.21,0.000000,,2013-05-26 03:42:00,
2013-05-25 22:53:00,71.0,69.0,-100.00,SE,145,10.0,14.0,94,0.00,,,2.21,0.000000,,2013-05-26 03:53:00,
2013-05-25 23:23:00,70.0,68.0,-100.00,SSE,155,13.0,16.0,95,0.00,,,2.21,0.000000,,2013-05-26 04:23:00,
2013-05-25 23:33:00,70.0,68.0,-100.00,SSE,155,13.0,16.0,95,0.00,,,2.21,0.000000,,2013-05-26 04:33:00,
2013-05-25 23:42:00,70.0,68.0,-100.00,SSE,155,13.0,16.0,95,0.00,,,2.21,0.000000,,2013-05-26 04:42:00,
2013-05-25 23:52:00,70.0,68.0,-100.00,SSE,155,13.0,16.0,95,0.00,,,2.21,0.000000,,2013-05-26 04:52:00,